Terminal Aerodrome Forecast
Issued by NWS Charleston, WV

Current Version | Previous Version | Graphics & Text | Print | Product List | Glossary On
Versions: 1 2 3 4 5 6 7 8 9 10 11 12 13 14 15 16 17 18 19 20 21 22 23 24
000
FTUS41 KRLX 290800 AAA
TAFBKW
TAF AMD
KBKW 290836Z 2909/3006 33006KT 6SM -SHRA BR SCT008 OVC020
      TEMPO 2909/2912 3SM -SHRA OVC005
     FM291400 27006KT P6SM BKN035
     FM292000 29009G15KT P6SM BKN250
     FM300100 31007KT P6SM SCT050
     FM300500 32007KT P6SM BKN200=

USA.gov is the U.S. government's official web portal to all federal, state and local government web resources and services.